Terminal Aerodrome Forecast
Issued by NWS North Platte, NE

Home | Current Version | Previous Version | Text Only | Print | Product List | Glossary Off
Versions: 1 2 3 4 5 6 7 8 9 10 11 12 13 14

000
FTUS43 KLBF 201100 RRA
TAFVTN
TAF
KVTN 201143Z 2012/2112 VRB05KT P6SM OVC018
      TEMPO 2012/2014 5SM BR
     FM201900 16008KT P6SM SCT250=

USA.gov is the U.S. government's official web portal to all federal, state and local government web resources and services.